sensor_id;sensor_type;location;lat;lon;timestamp;P1;durP1;ratioP1;P2;durP2;ratioP2
48598;SDS011;34385;41.984;12.620;2023-07-20T07:07:44;27.17;;;7.03;;
48598;SDS011;34385;41.984;12.620;2023-07-20T07:10:18;30.67;;;7.40;;
48598;SDS011;34385;41.984;12.620;2023-07-20T07:12:44;32.92;;;7.32;;
48598;SDS011;34385;41.984;12.620;2023-07-20T07:15:09;32.35;;;7.53;;
48598;SDS011;34385;41.984;12.620;2023-07-20T07:17:38;26.48;;;7.43;;
48598;SDS011;34385;41.984;12.620;2023-07-20T07:20:05;35.00;;;7.40;;
48598;SDS011;34385;41.984;12.620;2023-07-20T07:22:32;23.77;;;6.97;;
48598;SDS011;34385;41.984;12.620;2023-07-20T07:24:58;24.20;;;6.35;;
48598;SDS011;34385;41.984;12.620;2023-07-20T07:27:25;33.97;;;7.15;;
48598;SDS011;34385;41.984;12.620;2023-07-20T07:29:52;32.28;;;7.57;;
48598;SDS011;34385;41.984;12.620;2023-07-20T07:32:18;26.42;;;6.68;;
48598;SDS011;34385;41.984;12.620;2023-07-20T07:34:44;22.40;;;7.07;;
48598;SDS011;34385;41.984;12.620;2023-07-20T07:37:11;33.30;;;7.45;;
48598;SDS011;34385;41.984;12.620;2023-07-20T07:39:37;25.10;;;7.55;;
48598;SDS011;34385;41.984;12.620;2023-07-20T07:42:03;22.92;;;7.13;;
48598;SDS011;34385;41.984;12.620;2023-07-20T07:44:29;19.35;;;6.43;;
48598;SDS011;34385;41.984;12.620;2023-07-20T07:46:55;24.25;;;7.22;;
48598;SDS011;34385;41.984;12.620;2023-07-20T07:49:21;25.58;;;6.95;;
48598;SDS011;34385;41.984;12.620;2023-07-20T07:51:47;20.98;;;5.57;;
48598;SDS011;34385;41.984;12.620;2023-07-20T07:54:13;30.88;;;7.05;;
48598;SDS011;34385;41.984;12.620;2023-07-20T07:56:39;29.40;;;7.53;;
48598;SDS011;34385;41.984;12.620;2023-07-20T07:59:06;24.83;;;7.03;;
48598;SDS011;34385;41.984;12.620;2023-07-20T08:01:32;24.77;;;7.70;;
48598;SDS011;34385;41.984;12.620;2023-07-20T08:03:57;23.63;;;7.15;;
48598;SDS011;34385;41.984;12.620;2023-07-20T08:06:23;21.98;;;7.40;;
48598;SDS011;34385;41.984;12.620;2023-07-20T08:08:49;24.10;;;7.30;;
48598;SDS011;34385;41.984;12.620;2023-07-20T08:11:15;22.02;;;7.50;;
48598;SDS011;34385;41.984;12.620;2023-07-20T08:13:43;32.17;;;7.90;;
48598;SDS011;34385;41.984;12.620;2023-07-20T08:16:09;35.95;;;7.70;;
48598;SDS011;34385;41.984;12.620;2023-07-20T08:18:36;25.05;;;7.25;;
48598;SDS011;34385;41.984;12.620;2023-07-20T08:21:01;24.33;;;6.85;;
48598;SDS011;34385;41.984;12.620;2023-07-20T08:23:27;22.02;;;6.72;;
48598;SDS011;34385;41.984;12.620;2023-07-20T08:25:53;30.65;;;7.35;;
48598;SDS011;34385;41.984;12.620;2023-07-20T08:28:20;22.55;;;7.28;;
48598;SDS011;34385;41.984;12.620;2023-07-20T08:30:47;26.27;;;7.18;;
48598;SDS011;34385;41.984;12.620;2023-07-20T08:33:14;27.77;;;7.13;;
48598;SDS011;34385;41.984;12.620;2023-07-20T08:35:41;22.17;;;6.90;;
48598;SDS011;34385;41.984;12.620;2023-07-20T08:38:07;23.73;;;7.43;;
48598;SDS011;34385;41.984;12.620;2023-07-20T08:40:35;27.15;;;7.85;;
48598;SDS011;34385;41.984;12.620;2023-07-20T08:43:07;21.83;;;7.03;;
48598;SDS011;34385;41.984;12.620;2023-07-20T08:45:34;29.70;;;7.22;;
48598;SDS011;34385;41.984;12.620;2023-07-20T08:48:01;24.50;;;8.05;;
48598;SDS011;34385;41.984;12.620;2023-07-20T08:50:31;32.38;;;11.43;;
48598;SDS011;34385;41.984;12.620;2023-07-20T08:52:58;27.75;;;7.78;;
48598;SDS011;34385;41.984;12.620;2023-07-20T08:55:28;24.77;;;7.22;;
48598;SDS011;34385;41.984;12.620;2023-07-20T08:57:58;30.55;;;7.38;;
48598;SDS011;34385;41.984;12.620;2023-07-20T09:00:28;100.13;;;13.10;;
48598;SDS011;34385;41.984;12.620;2023-07-20T09:02:54;65.18;;;9.65;;
48598;SDS011;34385;41.984;12.620;2023-07-20T09:05:21;37.85;;;8.85;;
48598;SDS011;34385;41.984;12.620;2023-07-20T09:07:48;35.55;;;7.38;;
48598;SDS011;34385;41.984;12.620;2023-07-20T09:10:15;34.78;;;7.82;;
48598;SDS011;34385;41.984;12.620;2023-07-20T09:12:43;32.28;;;6.70;;
48598;SDS011;34385;41.984;12.620;2023-07-20T09:15:10;28.77;;;7.68;;
48598;SDS011;34385;41.984;12.620;2023-07-20T09:17:38;22.55;;;7.78;;
48598;SDS011;34385;41.984;12.620;2023-07-20T09:20:04;22.75;;;7.03;;
48598;SDS011;34385;41.984;12.620;2023-07-20T09:22:33;31.63;;;7.35;;
48598;SDS011;34385;41.984;12.620;2023-07-20T09:24:59;23.40;;;7.35;;
48598;SDS011;34385;41.984;12.620;2023-07-20T09:27:35;18.63;;;7.72;;
48598;SDS011;34385;41.984;12.620;2023-07-20T09:30:02;24.27;;;7.75;;
48598;SDS011;34385;41.984;12.620;2023-07-20T09:32:32;26.67;;;8.50;;
48598;SDS011;34385;41.984;12.620;2023-07-20T09:35:05;20.83;;;7.65;;
48598;SDS011;34385;41.984;12.620;2023-07-20T09:37:32;23.23;;;8.15;;
48598;SDS011;34385;41.984;12.620;2023-07-20T09:39:59;30.85;;;7.47;;
48598;SDS011;34385;41.984;12.620;2023-07-20T09:42:25;37.03;;;8.38;;
48598;SDS011;34385;41.984;12.620;2023-07-20T09:44:52;25.33;;;7.47;;
48598;SDS011;34385;41.984;12.620;2023-07-20T09:47:24;25.63;;;7.63;;
48598;SDS011;34385;41.984;12.620;2023-07-20T09:49:57;23.88;;;7.00;;
48598;SDS011;34385;41.984;12.620;2023-07-20T09:52:25;27.98;;;7.38;;
48598;SDS011;34385;41.984;12.620;2023-07-20T09:54:51;33.65;;;8.23;;
48598;SDS011;34385;41.984;12.620;2023-07-20T09:57:17;22.80;;;7.22;;
48598;SDS011;34385;41.984;12.620;2023-07-20T09:59:44;25.60;;;7.38;;
48598;SDS011;34385;41.984;12.620;2023-07-20T10:02:13;20.25;;;7.50;;
48598;SDS011;34385;41.984;12.620;2023-07-20T10:04:42;26.30;;;7.82;;
48598;SDS011;34385;41.984;12.620;2023-07-20T10:07:10;25.45;;;7.53;;
48598;SDS011;34385;41.984;12.620;2023-07-20T10:09:39;28.65;;;7.85;;
48598;SDS011;34385;41.984;12.620;2023-07-20T10:12:06;30.33;;;7.90;;
48598;SDS011;34385;41.984;12.620;2023-07-20T10:14:33;21.50;;;7.75;;
48598;SDS011;34385;41.984;12.620;2023-07-20T10:17:01;22.55;;;8.30;;
48598;SDS011;34385;41.984;12.620;2023-07-20T10:22:00;16.50;;;7.32;;
48598;SDS011;34385;41.984;12.620;2023-07-20T10:24:27;27.40;;;8.35;;
48598;SDS011;34385;41.984;12.620;2023-07-20T10:26:55;21.95;;;8.85;;
48598;SDS011;34385;41.984;12.620;2023-07-20T10:29:21;26.20;;;8.50;;
48598;SDS011;34385;41.984;12.620;2023-07-20T10:31:48;34.25;;;9.02;;
48598;SDS011;34385;41.984;12.620;2023-07-20T10:34:14;22.92;;;8.73;;
48598;SDS011;34385;41.984;12.620;2023-07-20T10:36:46;18.23;;;8.23;;
48598;SDS011;34385;41.984;12.620;2023-07-20T10:39:25;28.98;;;8.20;;
48598;SDS011;34385;41.984;12.620;2023-07-20T10:42:08;25.95;;;8.82;;
48598;SDS011;34385;41.984;12.620;2023-07-20T10:44:38;22.50;;;8.60;;
48598;SDS011;34385;41.984;12.620;2023-07-20T10:47:11;25.02;;;8.82;;
48598;SDS011;34385;41.984;12.620;2023-07-20T10:52:22;25.10;;;9.02;;
48598;SDS011;34385;41.984;12.620;2023-07-20T10:54:48;23.35;;;8.70;;
48598;SDS011;34385;41.984;12.620;2023-07-20T10:57:22;21.30;;;8.48;;
48598;SDS011;34385;41.984;12.620;2023-07-20T10:59:48;24.90;;;9.13;;
48598;SDS011;34385;41.984;12.620;2023-07-20T11:02:17;23.15;;;8.93;;
48598;SDS011;34385;41.984;12.620;2023-07-20T11:04:44;26.08;;;10.23;;
48598;SDS011;34385;41.984;12.620;2023-07-20T11:07:11;24.25;;;9.23;;
48598;SDS011;34385;41.984;12.620;2023-07-20T11:09:41;27.80;;;8.60;;
48598;SDS011;34385;41.984;12.620;2023-07-20T11:12:17;25.40;;;9.60;;
48598;SDS011;34385;41.984;12.620;2023-07-20T11:14:44;26.17;;;9.63;;
48598;SDS011;34385;41.984;12.620;2023-07-20T11:17:19;25.50;;;9.57;;
48598;SDS011;34385;41.984;12.620;2023-07-20T11:19:55;18.10;;;8.88;;
48598;SDS011;34385;41.984;12.620;2023-07-20T11:22:21;30.85;;;9.30;;
48598;SDS011;34385;41.984;12.620;2023-07-20T11:24:47;27.00;;;8.93;;
48598;SDS011;34385;41.984;12.620;2023-07-20T11:27:14;21.17;;;8.18;;
48598;SDS011;34385;41.984;12.620;2023-07-20T11:29:41;21.98;;;8.15;;
48598;SDS011;34385;41.984;12.620;2023-07-20T11:32:07;19.75;;;9.20;;
48598;SDS011;34385;41.984;12.620;2023-07-20T11:34:34;21.83;;;9.25;;
48598;SDS011;34385;41.984;12.620;2023-07-20T11:37:01;23.15;;;8.52;;
48598;SDS011;34385;41.984;12.620;2023-07-20T11:39:28;24.63;;;9.27;;
48598;SDS011;34385;41.984;12.620;2023-07-20T11:41:55;23.95;;;9.25;;
48598;SDS011;34385;41.984;12.620;2023-07-20T11:44:22;27.10;;;9.52;;
48598;SDS011;34385;41.984;12.620;2023-07-20T11:46:59;26.23;;;10.00;;
48598;SDS011;34385;41.984;12.620;2023-07-20T11:49:27;23.80;;;8.82;;
48598;SDS011;34385;41.984;12.620;2023-07-20T11:51:53;21.23;;;9.35;;
48598;SDS011;34385;41.984;12.620;2023-07-20T11:54:20;24.63;;;8.98;;
48598;SDS011;34385;41.984;12.620;2023-07-20T11:56:46;23.83;;;8.73;;
48598;SDS011;34385;41.984;12.620;2023-07-20T11:59:12;20.75;;;8.23;;
48598;SDS011;34385;41.984;12.620;2023-07-20T12:01:38;24.05;;;8.65;;
48598;SDS011;34385;41.984;12.620;2023-07-20T12:04:04;22.15;;;9.60;;
48598;SDS011;34385;41.984;12.620;2023-07-20T12:06:32;24.92;;;9.88;;
48598;SDS011;34385;41.984;12.620;2023-07-20T12:08:58;20.63;;;8.35;;
48598;SDS011;34385;41.984;12.620;2023-07-20T12:13:57;22.50;;;8.98;;
48598;SDS011;34385;41.984;12.620;2023-07-20T12:16:26;24.67;;;8.80;;
48598;SDS011;34385;41.984;12.620;2023-07-20T12:18:59;23.65;;;9.00;;
48598;SDS011;34385;41.984;12.620;2023-07-20T12:21:26;28.63;;;9.68;;
48598;SDS011;34385;41.984;12.620;2023-07-20T12:23:56;25.73;;;9.80;;
48598;SDS011;34385;41.984;12.620;2023-07-20T12:26:23;27.52;;;11.18;;
48598;SDS011;34385;41.984;12.620;2023-07-20T12:28:50;27.95;;;10.60;;
48598;SDS011;34385;41.984;12.620;2023-07-20T12:31:16;24.25;;;9.30;;
48598;SDS011;34385;41.984;12.620;2023-07-20T12:33:43;23.48;;;10.32;;
48598;SDS011;34385;41.984;12.620;2023-07-20T12:36:09;35.08;;;11.18;;
48598;SDS011;34385;41.984;12.620;2023-07-20T12:38:36;28.38;;;10.88;;
48598;SDS011;34385;41.984;12.620;2023-07-20T12:41:03;26.10;;;10.63;;
48598;SDS011;34385;41.984;12.620;2023-07-20T12:43:29;27.05;;;9.50;;
48598;SDS011;34385;41.984;12.620;2023-07-20T12:45:57;20.63;;;9.80;;
48598;SDS011;34385;41.984;12.620;2023-07-20T12:48:24;27.58;;;11.07;;
48598;SDS011;34385;41.984;12.620;2023-07-20T12:50:50;25.33;;;10.43;;
48598;SDS011;34385;41.984;12.620;2023-07-20T12:53:16;22.42;;;10.23;;
48598;SDS011;34385;41.984;12.620;2023-07-20T12:55:42;16.77;;;10.45;;
48598;SDS011;34385;41.984;12.620;2023-07-20T12:58:08;26.38;;;11.27;;
48598;SDS011;34385;41.984;12.620;2023-07-20T13:00:34;19.20;;;10.38;;
48598;SDS011;34385;41.984;12.620;2023-07-20T13:03:01;24.70;;;10.95;;
48598;SDS011;34385;41.984;12.620;2023-07-20T13:05:30;28.90;;;11.20;;
48598;SDS011;34385;41.984;12.620;2023-07-20T13:07:56;21.95;;;11.05;;
48598;SDS011;34385;41.984;12.620;2023-07-20T13:10:23;17.13;;;10.65;;
48598;SDS011;34385;41.984;12.620;2023-07-20T13:12:49;22.63;;;10.60;;
48598;SDS011;34385;41.984;12.620;2023-07-20T13:15:16;20.05;;;9.88;;
48598;SDS011;34385;41.984;12.620;2023-07-20T13:17:42;20.58;;;11.25;;
48598;SDS011;34385;41.984;12.620;2023-07-20T13:20:08;23.65;;;11.23;;
48598;SDS011;34385;41.984;12.620;2023-07-20T13:22:36;29.83;;;10.85;;
48598;SDS011;34385;41.984;12.620;2023-07-20T13:25:02;19.45;;;10.80;;
48598;SDS011;34385;41.984;12.620;2023-07-20T13:27:29;19.80;;;10.48;;
48598;SDS011;34385;41.984;12.620;2023-07-20T13:29:56;20.10;;;9.90;;
48598;SDS011;34385;41.984;12.620;2023-07-20T13:32:22;21.50;;;10.98;;
48598;SDS011;34385;41.984;12.620;2023-07-20T13:34:48;26.25;;;11.02;;
48598;SDS011;34385;41.984;12.620;2023-07-20T13:37:14;18.10;;;9.77;;
48598;SDS011;34385;41.984;12.620;2023-07-20T13:39:44;21.33;;;10.13;;
48598;SDS011;34385;41.984;12.620;2023-07-20T13:42:10;19.73;;;10.75;;
48598;SDS011;34385;41.984;12.620;2023-07-20T13:44:38;25.10;;;10.05;;
48598;SDS011;34385;41.984;12.620;2023-07-20T13:47:05;17.67;;;9.63;;
48598;SDS011;34385;41.984;12.620;2023-07-20T13:49:31;25.02;;;10.30;;
48598;SDS011;34385;41.984;12.620;2023-07-20T13:51:57;19.05;;;10.00;;
48598;SDS011;34385;41.984;12.620;2023-07-20T13:54:23;24.10;;;10.02;;
48598;SDS011;34385;41.984;12.620;2023-07-20T13:56:50;20.20;;;10.50;;
48598;SDS011;34385;41.984;12.620;2023-07-20T13:59:16;20.70;;;9.57;;
48598;SDS011;34385;41.984;12.620;2023-07-20T14:01:42;23.05;;;10.25;;
48598;SDS011;34385;41.984;12.620;2023-07-20T14:04:08;18.77;;;8.85;;
48598;SDS011;34385;41.984;12.620;2023-07-20T14:06:35;17.08;;;10.18;;
48598;SDS011;34385;41.984;12.620;2023-07-20T14:09:01;22.98;;;9.95;;
48598;SDS011;34385;41.984;12.620;2023-07-20T14:11:28;22.02;;;9.70;;
48598;SDS011;34385;41.984;12.620;2023-07-20T14:13:54;19.67;;;9.98;;
48598;SDS011;34385;41.984;12.620;2023-07-20T14:16:21;26.95;;;10.57;;
48598;SDS011;34385;41.984;12.620;2023-07-20T14:18:48;23.35;;;10.52;;
48598;SDS011;34385;41.984;12.620;2023-07-20T14:21:15;20.95;;;10.15;;
48598;SDS011;34385;41.984;12.620;2023-07-20T14:23:41;19.42;;;10.43;;
48598;SDS011;34385;41.984;12.620;2023-07-20T14:26:08;20.90;;;10.30;;
48598;SDS011;34385;41.984;12.620;2023-07-20T14:28:34;22.35;;;9.40;;
48598;SDS011;34385;41.984;12.620;2023-07-20T14:31:01;20.60;;;9.15;;
48598;SDS011;34385;41.984;12.620;2023-07-20T14:33:27;16.27;;;9.40;;
48598;SDS011;34385;41.984;12.620;2023-07-20T14:35:53;23.15;;;9.52;;
48598;SDS011;34385;41.984;12.620;2023-07-20T14:38:19;22.63;;;10.65;;
48598;SDS011;34385;41.984;12.620;2023-07-20T14:40:46;21.08;;;9.18;;
48598;SDS011;34385;41.984;12.620;2023-07-20T14:43:13;18.77;;;9.82;;
48598;SDS011;34385;41.984;12.620;2023-07-20T14:45:42;24.73;;;9.43;;
48598;SDS011;34385;41.984;12.620;2023-07-20T14:48:08;23.23;;;10.50;;
48598;SDS011;34385;41.984;12.620;2023-07-20T14:50:34;23.50;;;9.90;;
48598;SDS011;34385;41.984;12.620;2023-07-20T14:53:00;19.23;;;8.75;;
48598;SDS011;34385;41.984;12.620;2023-07-20T14:55:26;22.92;;;10.57;;
48598;SDS011;34385;41.984;12.620;2023-07-20T14:57:52;30.30;;;9.85;;
48598;SDS011;34385;41.984;12.620;2023-07-20T15:00:19;30.27;;;10.88;;
48598;SDS011;34385;41.984;12.620;2023-07-20T15:02:45;26.83;;;9.82;;
48598;SDS011;34385;41.984;12.620;2023-07-20T15:05:10;34.15;;;10.25;;
48598;SDS011;34385;41.984;12.620;2023-07-20T15:07:36;35.85;;;10.27;;
48598;SDS011;34385;41.984;12.620;2023-07-20T15:10:04;33.33;;;10.02;;
48598;SDS011;34385;41.984;12.620;2023-07-20T15:12:31;27.77;;;10.13;;
48598;SDS011;34385;41.984;12.620;2023-07-20T15:15:05;19.75;;;8.82;;
48598;SDS011;34385;41.984;12.620;2023-07-20T15:17:32;23.23;;;9.32;;
48598;SDS011;34385;41.984;12.620;2023-07-20T15:19:58;25.55;;;9.35;;
48598;SDS011;34385;41.984;12.620;2023-07-20T15:22:25;23.10;;;9.60;;
48598;SDS011;34385;41.984;12.620;2023-07-20T15:24:51;20.52;;;9.57;;
48598;SDS011;34385;41.984;12.620;2023-07-20T15:27:17;16.70;;;9.75;;
48598;SDS011;34385;41.984;12.620;2023-07-20T15:29:43;21.42;;;9.25;;
48598;SDS011;34385;41.984;12.620;2023-07-20T15:32:09;19.10;;;8.88;;
48598;SDS011;34385;41.984;12.620;2023-07-20T15:34:36;23.45;;;9.73;;
48598;SDS011;34385;41.984;12.620;2023-07-20T15:37:05;22.30;;;9.25;;
48598;SDS011;34385;41.984;12.620;2023-07-20T15:39:31;18.75;;;8.80;;
48598;SDS011;34385;41.984;12.620;2023-07-20T15:42:00;23.73;;;9.30;;
48598;SDS011;34385;41.984;12.620;2023-07-20T15:44:25;31.35;;;9.07;;
48598;SDS011;34385;41.984;12.620;2023-07-20T15:46:53;20.55;;;8.43;;
48598;SDS011;34385;41.984;12.620;2023-07-20T15:49:21;31.85;;;8.95;;
48598;SDS011;34385;41.984;12.620;2023-07-20T15:51:47;15.80;;;8.60;;
48598;SDS011;34385;41.984;12.620;2023-07-20T15:54:14;20.75;;;8.68;;
48598;SDS011;34385;41.984;12.620;2023-07-20T15:56:41;22.33;;;8.55;;
48598;SDS011;34385;41.984;12.620;2023-07-20T15:59:09;25.45;;;8.75;;
48598;SDS011;34385;41.984;12.620;2023-07-20T16:04:08;24.25;;;8.57;;
48598;SDS011;34385;41.984;12.620;2023-07-20T16:06:35;22.77;;;7.97;;
48598;SDS011;34385;41.984;12.620;2023-07-20T16:09:02;22.38;;;8.70;;
48598;SDS011;34385;41.984;12.620;2023-07-20T16:11:32;24.75;;;8.43;;
48598;SDS011;34385;41.984;12.620;2023-07-20T16:13:59;19.98;;;9.55;;
48598;SDS011;34385;41.984;12.620;2023-07-20T16:16:30;24.65;;;8.60;;
48598;SDS011;34385;41.984;12.620;2023-07-20T16:18:57;16.30;;;7.85;;
48598;SDS011;34385;41.984;12.620;2023-07-20T16:21:24;18.95;;;8.30;;
48598;SDS011;34385;41.984;12.620;2023-07-20T16:23:55;16.88;;;8.27;;
48598;SDS011;34385;41.984;12.620;2023-07-20T16:26:25;29.25;;;8.73;;
48598;SDS011;34385;41.984;12.620;2023-07-20T16:28:52;14.00;;;8.27;;
48598;SDS011;34385;41.984;12.620;2023-07-20T16:31:19;15.52;;;7.57;;
48598;SDS011;34385;41.984;12.620;2023-07-20T16:33:47;18.27;;;8.02;;
48598;SDS011;34385;41.984;12.620;2023-07-20T16:36:14;24.67;;;8.65;;
48598;SDS011;34385;41.984;12.620;2023-07-20T16:38:42;27.88;;;9.23;;
48598;SDS011;34385;41.984;12.620;2023-07-20T16:41:11;23.52;;;8.35;;
48598;SDS011;34385;41.984;12.620;2023-07-20T16:43:38;18.48;;;8.13;;
48598;SDS011;34385;41.984;12.620;2023-07-20T16:46:06;22.48;;;8.32;;
48598;SDS011;34385;41.984;12.620;2023-07-20T16:48:36;21.70;;;8.63;;
48598;SDS011;34385;41.984;12.620;2023-07-20T16:51:05;17.65;;;7.95;;
48598;SDS011;34385;41.984;12.620;2023-07-20T16:53:31;28.70;;;8.70;;
48598;SDS011;34385;41.984;12.620;2023-07-20T16:55:58;22.85;;;7.85;;
48598;SDS011;34385;41.984;12.620;2023-07-20T16:58:27;24.40;;;7.80;;
48598;SDS011;34385;41.984;12.620;2023-07-20T17:01:00;23.58;;;8.02;;
48598;SDS011;34385;41.984;12.620;2023-07-20T17:03:30;20.83;;;8.05;;
48598;SDS011;34385;41.984;12.620;2023-07-20T17:06:02;22.15;;;8.00;;
48598;SDS011;34385;41.984;12.620;2023-07-20T17:08:32;22.90;;;8.05;;
48598;SDS011;34385;41.984;12.620;2023-07-20T17:11:04;17.27;;;7.10;;
48598;SDS011;34385;41.984;12.620;2023-07-20T17:13:33;22.33;;;7.72;;
48598;SDS011;34385;41.984;12.620;2023-07-20T17:15:59;23.27;;;8.38;;
48598;SDS011;34385;41.984;12.620;2023-07-20T17:18:25;15.23;;;7.20;;
48598;SDS011;34385;41.984;12.620;2023-07-20T17:20:54;21.85;;;7.45;;
48598;SDS011;34385;41.984;12.620;2023-07-20T17:23:24;35.30;;;8.50;;
48598;SDS011;34385;41.984;12.620;2023-07-20T17:25:54;20.95;;;7.70;;
48598;SDS011;34385;41.984;12.620;2023-07-20T17:28:22;23.98;;;7.60;;
48598;SDS011;34385;41.984;12.620;2023-07-20T17:31:00;25.17;;;8.45;;
48598;SDS011;34385;41.984;12.620;2023-07-20T17:33:27;23.30;;;8.13;;
48598;SDS011;34385;41.984;12.620;2023-07-20T17:35:54;26.92;;;7.95;;
48598;SDS011;34385;41.984;12.620;2023-07-20T17:38:20;22.13;;;7.43;;
48598;SDS011;34385;41.984;12.620;2023-07-20T17:40:50;19.50;;;7.10;;
48598;SDS011;34385;41.984;12.620;2023-07-20T17:43:18;17.60;;;7.25;;
48598;SDS011;34385;41.984;12.620;2023-07-20T17:45:51;38.63;;;8.32;;
48598;SDS011;34385;41.984;12.620;2023-07-20T17:48:23;19.48;;;8.27;;
48598;SDS011;34385;41.984;12.620;2023-07-20T17:50:56;22.27;;;7.30;;
48598;SDS011;34385;41.984;12.620;2023-07-20T17:53:22;22.35;;;7.38;;
48598;SDS011;34385;41.984;12.620;2023-07-20T17:55:48;28.50;;;7.70;;
48598;SDS011;34385;41.984;12.620;2023-07-20T17:58:15;31.48;;;8.50;;
48598;SDS011;34385;41.984;12.620;2023-07-20T18:00:41;27.00;;;7.18;;
48598;SDS011;34385;41.984;12.620;2023-07-20T18:03:08;29.63;;;7.10;;
48598;SDS011;34385;41.984;12.620;2023-07-20T18:05:34;26.85;;;7.18;;
48598;SDS011;34385;41.984;12.620;2023-07-20T18:08:02;27.38;;;7.65;;
48598;SDS011;34385;41.984;12.620;2023-07-20T18:10:31;18.55;;;7.20;;
48598;SDS011;34385;41.984;12.620;2023-07-20T18:12:57;27.02;;;8.63;;
48598;SDS011;34385;41.984;12.620;2023-07-20T18:15:26;27.58;;;7.90;;
48598;SDS011;34385;41.984;12.620;2023-07-20T18:17:55;20.40;;;6.82;;
48598;SDS011;34385;41.984;12.620;2023-07-20T18:20:22;26.73;;;7.50;;
48598;SDS011;34385;41.984;12.620;2023-07-20T18:22:48;22.05;;;7.53;;
48598;SDS011;34385;41.984;12.620;2023-07-20T18:25:15;19.60;;;7.45;;
48598;SDS011;34385;41.984;12.620;2023-07-20T18:27:42;50.60;;;8.95;;
48598;SDS011;34385;41.984;12.620;2023-07-20T18:30:11;43.83;;;8.43;;
48598;SDS011;34385;41.984;12.620;2023-07-20T18:32:44;45.10;;;7.85;;
48598;SDS011;34385;41.984;12.620;2023-07-20T18:35:12;35.30;;;7.57;;
48598;SDS011;34385;41.984;12.620;2023-07-20T18:37:40;24.25;;;7.78;;
48598;SDS011;34385;41.984;12.620;2023-07-20T18:40:07;28.98;;;8.23;;
48598;SDS011;34385;41.984;12.620;2023-07-20T18:42:34;21.88;;;7.10;;
48598;SDS011;34385;41.984;12.620;2023-07-20T18:45:02;19.90;;;7.80;;
48598;SDS011;34385;41.984;12.620;2023-07-20T18:47:29;25.73;;;7.65;;
48598;SDS011;34385;41.984;12.620;2023-07-20T18:49:56;25.17;;;7.70;;
48598;SDS011;34385;41.984;12.620;2023-07-20T18:52:24;38.40;;;7.88;;
48598;SDS011;34385;41.984;12.620;2023-07-20T18:54:53;40.95;;;8.48;;
48598;SDS011;34385;41.984;12.620;2023-07-20T18:57:21;26.63;;;7.53;;
48598;SDS011;34385;41.984;12.620;2023-07-20T18:59:48;33.70;;;8.40;;
48598;SDS011;34385;41.984;12.620;2023-07-20T19:02:15;24.75;;;8.13;;
48598;SDS011;34385;41.984;12.620;2023-07-20T19:04:41;32.30;;;8.80;;
48598;SDS011;34385;41.984;12.620;2023-07-20T19:07:09;25.27;;;8.32;;
48598;SDS011;34385;41.984;12.620;2023-07-20T19:09:36;23.83;;;8.23;;
48598;SDS011;34385;41.984;12.620;2023-07-20T19:12:03;31.60;;;8.80;;
48598;SDS011;34385;41.984;12.620;2023-07-20T19:14:34;40.22;;;9.68;;
48598;SDS011;34385;41.984;12.620;2023-07-20T19:17:03;29.52;;;9.13;;
48598;SDS011;34385;41.984;12.620;2023-07-20T19:19:31;24.58;;;8.52;;
48598;SDS011;34385;41.984;12.620;2023-07-20T19:21:59;24.85;;;8.40;;
48598;SDS011;34385;41.984;12.620;2023-07-20T19:24:28;25.52;;;9.05;;
48598;SDS011;34385;41.984;12.620;2023-07-20T19:26:57;25.75;;;8.55;;
48598;SDS011;34385;41.984;12.620;2023-07-20T19:29:25;21.77;;;9.55;;
48598;SDS011;34385;41.984;12.620;2023-07-20T19:31:52;25.55;;;8.68;;
48598;SDS011;34385;41.984;12.620;2023-07-20T19:34:18;19.70;;;7.93;;
48598;SDS011;34385;41.984;12.620;2023-07-20T19:36:46;22.23;;;7.72;;
48598;SDS011;34385;41.984;12.620;2023-07-20T19:39:15;24.65;;;8.60;;
48598;SDS011;34385;41.984;12.620;2023-07-20T19:41:43;24.52;;;7.80;;
48598;SDS011;34385;41.984;12.620;2023-07-20T19:44:10;19.27;;;8.50;;
48598;SDS011;34385;41.984;12.620;2023-07-20T19:46:40;17.65;;;8.63;;
48598;SDS011;34385;41.984;12.620;2023-07-20T19:49:08;23.08;;;8.07;;
48598;SDS011;34385;41.984;12.620;2023-07-20T19:51:36;16.58;;;8.27;;
48598;SDS011;34385;41.984;12.620;2023-07-20T19:54:02;21.13;;;8.45;;
48598;SDS011;34385;41.984;12.620;2023-07-20T19:56:30;22.98;;;8.30;;
48598;SDS011;34385;41.984;12.620;2023-07-20T19:58:56;24.40;;;8.00;;
48598;SDS011;34385;41.984;12.620;2023-07-20T20:01:23;26.50;;;8.57;;
48598;SDS011;34385;41.984;12.620;2023-07-20T20:03:49;21.20;;;8.00;;
48598;SDS011;34385;41.984;12.620;2023-07-20T20:06:15;19.58;;;8.23;;
48598;SDS011;34385;41.984;12.620;2023-07-20T20:08:42;25.77;;;8.15;;
48598;SDS011;34385;41.984;12.620;2023-07-20T20:11:09;22.10;;;8.98;;
48598;SDS011;34385;41.984;12.620;2023-07-20T20:13:37;18.80;;;8.82;;
48598;SDS011;34385;41.984;12.620;2023-07-20T20:16:06;24.95;;;8.60;;
48598;SDS011;34385;41.984;12.620;2023-07-20T20:18:33;27.85;;;8.90;;
48598;SDS011;34385;41.984;12.620;2023-07-20T20:21:00;30.33;;;9.48;;
